CheckWX is a tool to help pilots better visualize weather data.  It is not intended as a substitute for an official pre-flight weather briefing.

09:23:27 UTC

KBID METAR
Block Island State Airport
Block Island, Rhode Island, USA
Current

27 mins ago

KBID 280856Z AUTO 30008KT 10SM OVC060 03/M03 A2969 RMK AO2 SLP055 T00331028 52005
Observed
Jan-28 @ 08:56 UTC
Wind
  • 300° at 8 KTS
Visibility
10 SM
Flight Rules
VFR
Cloud Levels
  • Overcast at 6,000' AGL
Temperature
C / 37°F
Dewpoint
-3°C / 27°F
Humidity
65%
Altimeter
29.69" Hg
Pressure
1005.42 hPa
Previous

1 hour ago

KBID 280756Z AUTO 31010G18KT 10SM OVC060 03/M03 A2968 RMK AO2 SLP052 T00281028
Observed
Jan-28 @ 07:56 UTC
Wind
  • 310° at 10 KTS
  • Gusting to 18 KTS
Visibility
10 SM
Flight Rules
VFR
Cloud Levels
  • Overcast at 6,000' AGL
Temperature
C / 37°F
Dewpoint
-3°C / 27°F
Humidity
65%
Altimeter
29.68" Hg
Pressure
1005.12 hPa
Previous

2 hours ago

KBID 280656Z AUTO 31007G15KT 10SM OVC060 03/M03 A2968 RMK AO2 SLP053 T00331028
Observed
Jan-28 @ 06:56 UTC
Wind
  • 310° at 7 KTS
  • Gusting to 15 KTS
Visibility
10 SM
Flight Rules
VFR
Cloud Levels
  • Overcast at 6,000' AGL
Temperature
C / 37°F
Dewpoint
-3°C / 27°F
Humidity
65%
Altimeter
29.68" Hg
Pressure
1005.12 hPa